sensor_id;sensor_type;location;lat;lon;timestamp;P1;durP1;ratioP1;P2;durP2;ratioP2
10452;SDS011;5274;51.992;8.518;2024-03-08T00:01:47;31.97;;;28.97;;
10452;SDS011;5274;51.992;8.518;2024-03-08T00:04:13;32.77;;;29.63;;
10452;SDS011;5274;51.992;8.518;2024-03-08T00:06:40;33.10;;;30.02;;
10452;SDS011;5274;51.992;8.518;2024-03-08T00:09:05;32.65;;;29.67;;
10452;SDS011;5274;51.992;8.518;2024-03-08T00:11:32;33.30;;;30.13;;
10452;SDS011;5274;51.992;8.518;2024-03-08T00:13:58;33.03;;;29.95;;
10452;SDS011;5274;51.992;8.518;2024-03-08T00:16:24;32.40;;;29.33;;
10452;SDS011;5274;51.992;8.518;2024-03-08T00:18:49;32.50;;;29.50;;
10452;SDS011;5274;51.992;8.518;2024-03-08T00:21:15;32.97;;;29.73;;
10452;SDS011;5274;51.992;8.518;2024-03-08T00:23:41;32.87;;;29.93;;
10452;SDS011;5274;51.992;8.518;2024-03-08T00:26:06;32.55;;;29.35;;
10452;SDS011;5274;51.992;8.518;2024-03-08T00:28:32;31.93;;;29.03;;
10452;SDS011;5274;51.992;8.518;2024-03-08T00:30:59;32.63;;;29.63;;
10452;SDS011;5274;51.992;8.518;2024-03-08T00:33:25;33.97;;;30.73;;
10452;SDS011;5274;51.992;8.518;2024-03-08T00:35:50;33.58;;;30.58;;
10452;SDS011;5274;51.992;8.518;2024-03-08T00:38:16;34.07;;;30.87;;
10452;SDS011;5274;51.992;8.518;2024-03-08T00:40:43;33.63;;;30.63;;
10452;SDS011;5274;51.992;8.518;2024-03-08T00:43:09;34.10;;;30.83;;
10452;SDS011;5274;51.992;8.518;2024-03-08T00:45:34;33.63;;;30.43;;
10452;SDS011;5274;51.992;8.518;2024-03-08T00:48:01;33.40;;;30.27;;
10452;SDS011;5274;51.992;8.518;2024-03-08T00:50:28;34.13;;;30.88;;
10452;SDS011;5274;51.992;8.518;2024-03-08T00:52:53;34.00;;;30.90;;
10452;SDS011;5274;51.992;8.518;2024-03-08T00:55:19;34.30;;;31.20;;
10452;SDS011;5274;51.992;8.518;2024-03-08T00:57:45;34.47;;;31.27;;
10452;SDS011;5274;51.992;8.518;2024-03-08T01:00:10;35.13;;;31.92;;
10452;SDS011;5274;51.992;8.518;2024-03-08T01:02:37;34.80;;;31.40;;
10452;SDS011;5274;51.992;8.518;2024-03-08T01:05:03;34.70;;;31.40;;
10452;SDS011;5274;51.992;8.518;2024-03-08T01:07:32;34.63;;;31.23;;
10452;SDS011;5274;51.992;8.518;2024-03-08T01:09:57;35.08;;;31.75;;
10452;SDS011;5274;51.992;8.518;2024-03-08T01:12:23;35.50;;;32.03;;
10452;SDS011;5274;51.992;8.518;2024-03-08T01:14:48;35.40;;;31.90;;
10452;SDS011;5274;51.992;8.518;2024-03-08T01:17:14;35.10;;;31.77;;
10452;SDS011;5274;51.992;8.518;2024-03-08T01:19:40;35.03;;;31.67;;
10452;SDS011;5274;51.992;8.518;2024-03-08T01:22:05;35.08;;;31.70;;
10452;SDS011;5274;51.992;8.518;2024-03-08T01:24:31;35.03;;;31.73;;
10452;SDS011;5274;51.992;8.518;2024-03-08T01:26:56;34.28;;;30.95;;
10452;SDS011;5274;51.992;8.518;2024-03-08T01:29:22;35.27;;;32.03;;
10452;SDS011;5274;51.992;8.518;2024-03-08T01:31:47;35.20;;;31.80;;
10452;SDS011;5274;51.992;8.518;2024-03-08T01:34:13;35.87;;;32.40;;
10452;SDS011;5274;51.992;8.518;2024-03-08T01:36:38;35.22;;;31.70;;
10452;SDS011;5274;51.992;8.518;2024-03-08T01:39:04;36.57;;;33.10;;
10452;SDS011;5274;51.992;8.518;2024-03-08T01:41:33;36.35;;;32.60;;
10452;SDS011;5274;51.992;8.518;2024-03-08T01:43:59;35.85;;;32.28;;
10452;SDS011;5274;51.992;8.518;2024-03-08T01:46:25;37.35;;;33.60;;
10452;SDS011;5274;51.992;8.518;2024-03-08T01:48:53;36.03;;;32.63;;
10452;SDS011;5274;51.992;8.518;2024-03-08T01:51:19;37.00;;;33.37;;
10452;SDS011;5274;51.992;8.518;2024-03-08T01:53:46;35.67;;;32.03;;
10452;SDS011;5274;51.992;8.518;2024-03-08T01:56:12;35.67;;;32.28;;
10452;SDS011;5274;51.992;8.518;2024-03-08T01:58:38;35.95;;;32.55;;
10452;SDS011;5274;51.992;8.518;2024-03-08T02:01:08;35.93;;;32.37;;
10452;SDS011;5274;51.992;8.518;2024-03-08T02:03:38;35.60;;;32.17;;
10452;SDS011;5274;51.992;8.518;2024-03-08T02:06:03;36.97;;;33.10;;
10452;SDS011;5274;51.992;8.518;2024-03-08T02:08:30;36.53;;;33.07;;
10452;SDS011;5274;51.992;8.518;2024-03-08T02:10:56;37.15;;;33.63;;
10452;SDS011;5274;51.992;8.518;2024-03-08T02:13:22;36.77;;;33.17;;
10452;SDS011;5274;51.992;8.518;2024-03-08T02:15:54;36.07;;;32.50;;
10452;SDS011;5274;51.992;8.518;2024-03-08T02:18:24;35.50;;;32.20;;
10452;SDS011;5274;51.992;8.518;2024-03-08T02:20:57;36.60;;;33.10;;
10452;SDS011;5274;51.992;8.518;2024-03-08T02:23:24;36.88;;;33.28;;
10452;SDS011;5274;51.992;8.518;2024-03-08T02:25:50;36.75;;;33.15;;
10452;SDS011;5274;51.992;8.518;2024-03-08T02:28:16;35.92;;;32.38;;
10452;SDS011;5274;51.992;8.518;2024-03-08T02:30:45;35.97;;;32.47;;
10452;SDS011;5274;51.992;8.518;2024-03-08T02:33:12;36.35;;;32.75;;
10452;SDS011;5274;51.992;8.518;2024-03-08T02:35:41;35.80;;;32.45;;
10452;SDS011;5274;51.992;8.518;2024-03-08T02:38:10;35.97;;;32.22;;
10452;SDS011;5274;51.992;8.518;2024-03-08T02:40:36;36.25;;;32.75;;
10452;SDS011;5274;51.992;8.518;2024-03-08T02:43:02;36.20;;;32.60;;
10452;SDS011;5274;51.992;8.518;2024-03-08T02:45:29;35.92;;;32.22;;
10452;SDS011;5274;51.992;8.518;2024-03-08T02:47:55;35.92;;;32.53;;
10452;SDS011;5274;51.992;8.518;2024-03-08T02:50:21;36.63;;;33.03;;
10452;SDS011;5274;51.992;8.518;2024-03-08T02:52:47;35.72;;;32.15;;
10452;SDS011;5274;51.992;8.518;2024-03-08T02:55:13;36.42;;;32.88;;
10452;SDS011;5274;51.992;8.518;2024-03-08T02:57:41;37.33;;;33.40;;
10452;SDS011;5274;51.992;8.518;2024-03-08T03:00:08;35.53;;;31.98;;
10452;SDS011;5274;51.992;8.518;2024-03-08T03:02:35;35.25;;;31.75;;
10452;SDS011;5274;51.992;8.518;2024-03-08T03:05:01;36.60;;;32.85;;
10452;SDS011;5274;51.992;8.518;2024-03-08T03:07:34;35.22;;;31.73;;
10452;SDS011;5274;51.992;8.518;2024-03-08T03:09:59;36.67;;;32.78;;
10452;SDS011;5274;51.992;8.518;2024-03-08T03:12:26;36.28;;;32.47;;
10452;SDS011;5274;51.992;8.518;2024-03-08T03:14:52;36.33;;;32.78;;
10452;SDS011;5274;51.992;8.518;2024-03-08T03:17:18;36.33;;;32.83;;
10452;SDS011;5274;51.992;8.518;2024-03-08T03:19:44;36.55;;;32.95;;
10452;SDS011;5274;51.992;8.518;2024-03-08T03:22:11;35.88;;;32.38;;
10452;SDS011;5274;51.992;8.518;2024-03-08T03:24:37;36.95;;;32.97;;
10452;SDS011;5274;51.992;8.518;2024-03-08T03:27:03;36.45;;;32.75;;
10452;SDS011;5274;51.992;8.518;2024-03-08T03:29:36;35.75;;;32.13;;
10452;SDS011;5274;51.992;8.518;2024-03-08T03:32:03;35.15;;;31.75;;
10452;SDS011;5274;51.992;8.518;2024-03-08T03:34:29;36.45;;;32.90;;
10452;SDS011;5274;51.992;8.518;2024-03-08T03:36:54;36.42;;;32.70;;
10452;SDS011;5274;51.992;8.518;2024-03-08T03:39:20;36.13;;;32.50;;
10452;SDS011;5274;51.992;8.518;2024-03-08T03:41:47;36.20;;;32.60;;
10452;SDS011;5274;51.992;8.518;2024-03-08T03:44:16;35.63;;;32.08;;
10452;SDS011;5274;51.992;8.518;2024-03-08T03:46:43;37.40;;;33.70;;
10452;SDS011;5274;51.992;8.518;2024-03-08T03:49:11;37.58;;;33.88;;
10452;SDS011;5274;51.992;8.518;2024-03-08T03:51:37;36.53;;;32.97;;
10452;SDS011;5274;51.992;8.518;2024-03-08T03:54:03;36.50;;;32.85;;
10452;SDS011;5274;51.992;8.518;2024-03-08T03:56:28;37.03;;;33.43;;
10452;SDS011;5274;51.992;8.518;2024-03-08T03:58:55;37.72;;;33.92;;
10452;SDS011;5274;51.992;8.518;2024-03-08T04:01:21;37.28;;;33.60;;
10452;SDS011;5274;51.992;8.518;2024-03-08T04:03:47;35.85;;;32.22;;
10452;SDS011;5274;51.992;8.518;2024-03-08T04:06:12;36.85;;;33.15;;
10452;SDS011;5274;51.992;8.518;2024-03-08T04:08:39;36.25;;;32.65;;
10452;SDS011;5274;51.992;8.518;2024-03-08T04:11:04;37.55;;;33.85;;
10452;SDS011;5274;51.992;8.518;2024-03-08T04:13:30;39.27;;;35.10;;
10452;SDS011;5274;51.992;8.518;2024-03-08T04:15:55;38.27;;;34.17;;
10452;SDS011;5274;51.992;8.518;2024-03-08T04:18:21;38.10;;;34.28;;
10452;SDS011;5274;51.992;8.518;2024-03-08T04:20:47;39.00;;;35.00;;
10452;SDS011;5274;51.992;8.518;2024-03-08T04:23:12;38.33;;;34.55;;
10452;SDS011;5274;51.992;8.518;2024-03-08T04:25:38;38.17;;;34.30;;
10452;SDS011;5274;51.992;8.518;2024-03-08T04:28:03;38.47;;;34.70;;
10452;SDS011;5274;51.992;8.518;2024-03-08T04:30:29;37.80;;;34.17;;
10452;SDS011;5274;51.992;8.518;2024-03-08T04:32:55;38.30;;;34.50;;
10452;SDS011;5274;51.992;8.518;2024-03-08T04:35:20;39.40;;;35.47;;
10452;SDS011;5274;51.992;8.518;2024-03-08T04:37:46;38.15;;;34.42;;
10452;SDS011;5274;51.992;8.518;2024-03-08T04:40:12;39.03;;;35.03;;
10452;SDS011;5274;51.992;8.518;2024-03-08T04:42:37;38.50;;;34.40;;
10452;SDS011;5274;51.992;8.518;2024-03-08T04:45:05;38.95;;;34.85;;
10452;SDS011;5274;51.992;8.518;2024-03-08T04:47:33;38.38;;;34.40;;
10452;SDS011;5274;51.992;8.518;2024-03-08T04:49:58;38.80;;;35.00;;
10452;SDS011;5274;51.992;8.518;2024-03-08T04:52:24;39.80;;;35.80;;
10452;SDS011;5274;51.992;8.518;2024-03-08T04:54:50;39.30;;;35.30;;
10452;SDS011;5274;51.992;8.518;2024-03-08T04:57:16;38.90;;;34.93;;
10452;SDS011;5274;51.992;8.518;2024-03-08T04:59:43;39.13;;;34.78;;
10452;SDS011;5274;51.992;8.518;2024-03-08T05:02:08;39.60;;;35.70;;
10452;SDS011;5274;51.992;8.518;2024-03-08T05:04:34;39.47;;;35.43;;
10452;SDS011;5274;51.992;8.518;2024-03-08T05:07:00;39.08;;;35.15;;
10452;SDS011;5274;51.992;8.518;2024-03-08T05:09:26;39.65;;;35.45;;
10452;SDS011;5274;51.992;8.518;2024-03-08T05:11:54;39.88;;;35.78;;
10452;SDS011;5274;51.992;8.518;2024-03-08T05:14:19;39.55;;;35.42;;
10452;SDS011;5274;51.992;8.518;2024-03-08T05:16:45;39.53;;;35.40;;
10452;SDS011;5274;51.992;8.518;2024-03-08T05:19:15;39.88;;;35.65;;
10452;SDS011;5274;51.992;8.518;2024-03-08T05:21:42;39.22;;;35.13;;
10452;SDS011;5274;51.992;8.518;2024-03-08T05:24:09;40.47;;;36.37;;
10452;SDS011;5274;51.992;8.518;2024-03-08T05:26:35;40.33;;;36.03;;
10452;SDS011;5274;51.992;8.518;2024-03-08T05:29:02;41.47;;;37.10;;
10452;SDS011;5274;51.992;8.518;2024-03-08T05:31:28;42.30;;;38.08;;
10452;SDS011;5274;51.992;8.518;2024-03-08T05:33:55;42.07;;;37.50;;
10452;SDS011;5274;51.992;8.518;2024-03-08T05:36:21;40.53;;;36.50;;
10452;SDS011;5274;51.992;8.518;2024-03-08T05:38:47;40.65;;;36.50;;
10452;SDS011;5274;51.992;8.518;2024-03-08T05:41:14;39.38;;;35.28;;
10452;SDS011;5274;51.992;8.518;2024-03-08T05:43:40;40.30;;;36.10;;
10452;SDS011;5274;51.992;8.518;2024-03-08T05:46:06;40.13;;;35.97;;
10452;SDS011;5274;51.992;8.518;2024-03-08T05:48:32;41.47;;;37.17;;
10452;SDS011;5274;51.992;8.518;2024-03-08T05:50:58;40.25;;;36.13;;
10452;SDS011;5274;51.992;8.518;2024-03-08T05:53:24;40.58;;;36.58;;
10452;SDS011;5274;51.992;8.518;2024-03-08T05:55:50;39.67;;;35.47;;
10452;SDS011;5274;51.992;8.518;2024-03-08T05:58:15;40.00;;;35.85;;
10452;SDS011;5274;51.992;8.518;2024-03-08T06:00:41;40.27;;;36.17;;
10452;SDS011;5274;51.992;8.518;2024-03-08T06:03:06;40.53;;;35.97;;
10452;SDS011;5274;51.992;8.518;2024-03-08T06:05:32;38.95;;;34.97;;
10452;SDS011;5274;51.992;8.518;2024-03-08T06:07:58;39.85;;;35.88;;
10452;SDS011;5274;51.992;8.518;2024-03-08T06:10:24;39.47;;;35.27;;
10452;SDS011;5274;51.992;8.518;2024-03-08T06:12:49;40.28;;;35.33;;
10452;SDS011;5274;51.992;8.518;2024-03-08T06:15:16;41.70;;;37.42;;
10452;SDS011;5274;51.992;8.518;2024-03-08T06:17:42;39.87;;;35.67;;
10452;SDS011;5274;51.992;8.518;2024-03-08T06:20:07;38.30;;;34.47;;
10452;SDS011;5274;51.992;8.518;2024-03-08T06:22:37;39.07;;;34.90;;
10452;SDS011;5274;51.992;8.518;2024-03-08T06:25:10;41.30;;;36.70;;
10452;SDS011;5274;51.992;8.518;2024-03-08T06:27:39;39.50;;;35.25;;
10452;SDS011;5274;51.992;8.518;2024-03-08T06:30:07;40.08;;;36.03;;
10452;SDS011;5274;51.992;8.518;2024-03-08T06:32:34;40.85;;;36.40;;
10452;SDS011;5274;51.992;8.518;2024-03-08T06:35:00;40.40;;;36.03;;
10452;SDS011;5274;51.992;8.518;2024-03-08T06:37:27;39.75;;;35.63;;
10452;SDS011;5274;51.992;8.518;2024-03-08T06:39:52;40.10;;;35.70;;
10452;SDS011;5274;51.992;8.518;2024-03-08T06:42:20;38.65;;;34.72;;
10452;SDS011;5274;51.992;8.518;2024-03-08T06:44:45;40.47;;;35.90;;
10452;SDS011;5274;51.992;8.518;2024-03-08T06:47:14;39.97;;;35.67;;
10452;SDS011;5274;51.992;8.518;2024-03-08T06:49:41;40.10;;;35.65;;
10452;SDS011;5274;51.992;8.518;2024-03-08T06:52:10;41.50;;;37.00;;
10452;SDS011;5274;51.992;8.518;2024-03-08T06:54:36;40.00;;;35.70;;
10452;SDS011;5274;51.992;8.518;2024-03-08T06:57:05;40.30;;;35.85;;
10452;SDS011;5274;51.992;8.518;2024-03-08T06:59:33;41.25;;;35.80;;
10452;SDS011;5274;51.992;8.518;2024-03-08T07:02:00;40.70;;;36.25;;
10452;SDS011;5274;51.992;8.518;2024-03-08T07:04:29;40.13;;;35.80;;
10452;SDS011;5274;51.992;8.518;2024-03-08T07:06:57;40.15;;;35.85;;
10452;SDS011;5274;51.992;8.518;2024-03-08T07:09:23;40.65;;;36.42;;
10452;SDS011;5274;51.992;8.518;2024-03-08T07:11:49;39.90;;;35.53;;
10452;SDS011;5274;51.992;8.518;2024-03-08T07:14:21;39.53;;;35.40;;
10452;SDS011;5274;51.992;8.518;2024-03-08T07:16:47;39.53;;;35.42;;
10452;SDS011;5274;51.992;8.518;2024-03-08T07:19:13;39.93;;;35.63;;
10452;SDS011;5274;51.992;8.518;2024-03-08T07:21:38;40.20;;;35.22;;
10452;SDS011;5274;51.992;8.518;2024-03-08T07:24:04;39.73;;;35.63;;
10452;SDS011;5274;51.992;8.518;2024-03-08T07:26:45;39.88;;;35.67;;
10452;SDS011;5274;51.992;8.518;2024-03-08T07:29:14;39.67;;;35.47;;
10452;SDS011;5274;51.992;8.518;2024-03-08T07:31:40;39.03;;;34.72;;
10452;SDS011;5274;51.992;8.518;2024-03-08T07:34:06;39.40;;;35.27;;
10452;SDS011;5274;51.992;8.518;2024-03-08T07:36:32;40.88;;;36.58;;
10452;SDS011;5274;51.992;8.518;2024-03-08T07:39:01;40.60;;;36.33;;
10452;SDS011;5274;51.992;8.518;2024-03-08T07:41:27;40.30;;;35.97;;
10452;SDS011;5274;51.992;8.518;2024-03-08T07:43:54;40.10;;;35.92;;
10452;SDS011;5274;51.992;8.518;2024-03-08T07:46:20;40.13;;;35.63;;
10452;SDS011;5274;51.992;8.518;2024-03-08T07:48:46;39.50;;;35.42;;
10452;SDS011;5274;51.992;8.518;2024-03-08T07:51:11;39.57;;;35.47;;
10452;SDS011;5274;51.992;8.518;2024-03-08T07:53:37;38.90;;;34.70;;
10452;SDS011;5274;51.992;8.518;2024-03-08T07:56:03;39.60;;;34.95;;
10452;SDS011;5274;51.992;8.518;2024-03-08T07:58:30;39.77;;;35.63;;
10452;SDS011;5274;51.992;8.518;2024-03-08T08:00:55;37.93;;;34.03;;
10452;SDS011;5274;51.992;8.518;2024-03-08T08:03:21;39.25;;;35.15;;
10452;SDS011;5274;51.992;8.518;2024-03-08T08:05:47;38.33;;;34.35;;
10452;SDS011;5274;51.992;8.518;2024-03-08T08:08:14;38.97;;;34.92;;
10452;SDS011;5274;51.992;8.518;2024-03-08T08:10:40;40.10;;;35.63;;
10452;SDS011;5274;51.992;8.518;2024-03-08T08:13:05;38.60;;;34.60;;
10452;SDS011;5274;51.992;8.518;2024-03-08T08:15:31;39.63;;;35.35;;
10452;SDS011;5274;51.992;8.518;2024-03-08T08:17:59;38.25;;;34.25;;
10452;SDS011;5274;51.992;8.518;2024-03-08T08:20:25;38.97;;;34.77;;
10452;SDS011;5274;51.992;8.518;2024-03-08T08:22:51;38.93;;;34.83;;
10452;SDS011;5274;51.992;8.518;2024-03-08T08:25:16;38.73;;;34.63;;
10452;SDS011;5274;51.992;8.518;2024-03-08T08:27:45;38.58;;;34.55;;
10452;SDS011;5274;51.992;8.518;2024-03-08T08:30:11;38.20;;;34.20;;
10452;SDS011;5274;51.992;8.518;2024-03-08T08:32:37;38.90;;;34.80;;
10452;SDS011;5274;51.992;8.518;2024-03-08T08:35:04;38.53;;;34.42;;
10452;SDS011;5274;51.992;8.518;2024-03-08T08:37:31;39.55;;;35.30;;
10452;SDS011;5274;51.992;8.518;2024-03-08T08:39:57;37.95;;;34.03;;
10452;SDS011;5274;51.992;8.518;2024-03-08T08:42:23;37.63;;;33.53;;
10452;SDS011;5274;51.992;8.518;2024-03-08T08:44:49;37.50;;;33.60;;
10452;SDS011;5274;51.992;8.518;2024-03-08T08:47:17;37.70;;;33.78;;
10452;SDS011;5274;51.992;8.518;2024-03-08T08:49:43;38.67;;;34.53;;
10452;SDS011;5274;51.992;8.518;2024-03-08T08:52:11;37.78;;;33.83;;
10452;SDS011;5274;51.992;8.518;2024-03-08T08:54:36;38.53;;;34.47;;
10452;SDS011;5274;51.992;8.518;2024-03-08T08:57:02;38.70;;;34.53;;
10452;SDS011;5274;51.992;8.518;2024-03-08T08:59:32;38.13;;;34.25;;
10452;SDS011;5274;51.992;8.518;2024-03-08T09:02:02;37.67;;;33.63;;
10452;SDS011;5274;51.992;8.518;2024-03-08T09:04:28;37.30;;;33.35;;
10452;SDS011;5274;51.992;8.518;2024-03-08T09:06:55;37.72;;;33.83;;
10452;SDS011;5274;51.992;8.518;2024-03-08T09:09:21;38.55;;;34.67;;
10452;SDS011;5274;51.992;8.518;2024-03-08T09:11:47;38.63;;;34.07;;
10452;SDS011;5274;51.992;8.518;2024-03-08T09:14:14;38.37;;;34.37;;
10452;SDS011;5274;51.992;8.518;2024-03-08T09:16:40;38.20;;;34.35;;
10452;SDS011;5274;51.992;8.518;2024-03-08T09:19:05;39.40;;;35.08;;
10452;SDS011;5274;51.992;8.518;2024-03-08T09:21:31;39.95;;;35.50;;
10452;SDS011;5274;51.992;8.518;2024-03-08T09:23:57;39.92;;;35.60;;
10452;SDS011;5274;51.992;8.518;2024-03-08T09:26:23;38.50;;;34.40;;
10452;SDS011;5274;51.992;8.518;2024-03-08T09:28:49;38.83;;;34.65;;
10452;SDS011;5274;51.992;8.518;2024-03-08T09:31:14;38.33;;;34.13;;
10452;SDS011;5274;51.992;8.518;2024-03-08T09:33:41;38.97;;;34.78;;
10452;SDS011;5274;51.992;8.518;2024-03-08T09:36:07;38.72;;;34.67;;
10452;SDS011;5274;51.992;8.518;2024-03-08T09:38:33;38.08;;;34.08;;
10452;SDS011;5274;51.992;8.518;2024-03-08T09:41:01;37.92;;;34.03;;
10452;SDS011;5274;51.992;8.518;2024-03-08T09:43:29;38.10;;;34.20;;
10452;SDS011;5274;51.992;8.518;2024-03-08T09:45:55;38.95;;;34.67;;
10452;SDS011;5274;51.992;8.518;2024-03-08T09:48:22;37.28;;;33.55;;
10452;SDS011;5274;51.992;8.518;2024-03-08T09:50:48;36.35;;;32.83;;
10452;SDS011;5274;51.992;8.518;2024-03-08T09:53:14;37.23;;;33.47;;
10452;SDS011;5274;51.992;8.518;2024-03-08T09:55:40;37.42;;;33.58;;
10452;SDS011;5274;51.992;8.518;2024-03-08T09:58:09;36.97;;;33.23;;
10452;SDS011;5274;51.992;8.518;2024-03-08T10:00:55;37.03;;;33.28;;
10452;SDS011;5274;51.992;8.518;2024-03-08T10:03:26;35.67;;;32.15;;
10452;SDS011;5274;51.992;8.518;2024-03-08T10:05:52;36.33;;;32.67;;
10452;SDS011;5274;51.992;8.518;2024-03-08T10:08:21;35.17;;;31.63;;
10452;SDS011;5274;51.992;8.518;2024-03-08T10:10:47;34.90;;;31.50;;
10452;SDS011;5274;51.992;8.518;2024-03-08T10:13:14;35.90;;;32.17;;
10452;SDS011;5274;51.992;8.518;2024-03-08T10:15:41;35.77;;;32.27;;
10452;SDS011;5274;51.992;8.518;2024-03-08T10:18:07;35.45;;;31.80;;
10452;SDS011;5274;51.992;8.518;2024-03-08T10:20:33;35.67;;;32.17;;
10452;SDS011;5274;51.992;8.518;2024-03-08T10:22:59;35.47;;;31.98;;
10452;SDS011;5274;51.992;8.518;2024-03-08T10:25:28;34.30;;;30.87;;
10452;SDS011;5274;51.992;8.518;2024-03-08T10:27:55;35.47;;;31.90;;
10452;SDS011;5274;51.992;8.518;2024-03-08T10:30:21;35.10;;;31.60;;
10452;SDS011;5274;51.992;8.518;2024-03-08T10:32:47;33.92;;;30.73;;
10452;SDS011;5274;51.992;8.518;2024-03-08T10:35:13;33.45;;;30.25;;
10452;SDS011;5274;51.992;8.518;2024-03-08T10:37:48;33.53;;;30.30;;
10452;SDS011;5274;51.992;8.518;2024-03-08T10:40:23;34.47;;;30.98;;
10452;SDS011;5274;51.992;8.518;2024-03-08T10:42:54;33.38;;;30.17;;
10452;SDS011;5274;51.992;8.518;2024-03-08T10:45:36;34.00;;;30.67;;
10452;SDS011;5274;51.992;8.518;2024-03-08T10:51:02;32.25;;;29.15;;
10452;SDS011;5274;51.992;8.518;2024-03-08T10:53:28;31.90;;;28.80;;
10452;SDS011;5274;51.992;8.518;2024-03-08T10:55:56;33.17;;;30.07;;
10452;SDS011;5274;51.992;8.518;2024-03-08T10:58:23;33.22;;;30.05;;
10452;SDS011;5274;51.992;8.518;2024-03-08T11:00:52;32.47;;;29.33;;
10452;SDS011;5274;51.992;8.518;2024-03-08T11:06:10;32.57;;;29.60;;
10452;SDS011;5274;51.992;8.518;2024-03-08T11:08:43;32.22;;;29.23;;
10452;SDS011;5274;51.992;8.518;2024-03-08T11:11:26;32.53;;;29.33;;
10452;SDS011;5274;51.992;8.518;2024-03-08T11:13:55;31.77;;;28.73;;
10452;SDS011;5274;51.992;8.518;2024-03-08T11:16:36;32.00;;;29.00;;
10452;SDS011;5274;51.992;8.518;2024-03-08T11:19:06;32.95;;;29.85;;
10452;SDS011;5274;51.992;8.518;2024-03-08T11:21:56;32.42;;;29.38;;
10452;SDS011;5274;51.992;8.518;2024-03-08T11:24:22;32.65;;;29.60;;
10452;SDS011;5274;51.992;8.518;2024-03-08T11:26:48;33.42;;;30.23;;
10452;SDS011;5274;51.992;8.518;2024-03-08T11:32:19;33.83;;;30.60;;
10452;SDS011;5274;51.992;8.518;2024-03-08T11:34:47;33.70;;;30.40;;
10452;SDS011;5274;51.992;8.518;2024-03-08T11:37:17;34.17;;;30.73;;
10452;SDS011;5274;51.992;8.518;2024-03-08T11:39:46;34.00;;;30.80;;
10452;SDS011;5274;51.992;8.518;2024-03-08T11:42:16;34.92;;;31.55;;
10452;SDS011;5274;51.992;8.518;2024-03-08T11:44:43;35.17;;;31.80;;
10452;SDS011;5274;51.992;8.518;2024-03-08T11:47:09;33.45;;;30.25;;
10452;SDS011;5274;51.992;8.518;2024-03-08T11:49:36;34.90;;;31.40;;
10452;SDS011;5274;51.992;8.518;2024-03-08T11:52:03;33.95;;;30.75;;
10452;SDS011;5274;51.992;8.518;2024-03-08T11:54:29;34.33;;;30.93;;
10452;SDS011;5274;51.992;8.518;2024-03-08T11:56:55;34.15;;;30.83;;
10452;SDS011;5274;51.992;8.518;2024-03-08T11:59:25;34.70;;;31.27;;
10452;SDS011;5274;51.992;8.518;2024-03-08T12:02:04;34.00;;;30.75;;
10452;SDS011;5274;51.992;8.518;2024-03-08T12:04:30;33.65;;;30.50;;
10452;SDS011;5274;51.992;8.518;2024-03-08T12:07:00;33.53;;;30.17;;
10452;SDS011;5274;51.992;8.518;2024-03-08T12:09:34;32.90;;;29.63;;
10452;SDS011;5274;51.992;8.518;2024-03-08T12:12:01;34.38;;;30.98;;
10452;SDS011;5274;51.992;8.518;2024-03-08T12:14:28;32.17;;;29.15;;
10452;SDS011;5274;51.992;8.518;2024-03-08T12:16:54;33.13;;;29.95;;
10452;SDS011;5274;51.992;8.518;2024-03-08T12:19:19;33.13;;;30.13;;
10452;SDS011;5274;51.992;8.518;2024-03-08T12:21:45;32.33;;;29.37;;
10452;SDS011;5274;51.992;8.518;2024-03-08T12:24:14;31.63;;;28.80;;
10452;SDS011;5274;51.992;8.518;2024-03-08T12:26:44;31.70;;;28.70;;
10452;SDS011;5274;51.992;8.518;2024-03-08T12:31:51;31.52;;;28.67;;
10452;SDS011;5274;51.992;8.518;2024-03-08T12:34:18;31.13;;;28.25;;
10452;SDS011;5274;51.992;8.518;2024-03-08T12:36:47;31.83;;;28.95;;
10452;SDS011;5274;51.992;8.518;2024-03-08T12:39:18;30.73;;;27.83;;
10452;SDS011;5274;51.992;8.518;2024-03-08T12:41:48;29.42;;;26.85;;
10452;SDS011;5274;51.992;8.518;2024-03-08T12:44:17;28.95;;;26.42;;
10452;SDS011;5274;51.992;8.518;2024-03-08T12:46:44;28.25;;;25.95;;
10452;SDS011;5274;51.992;8.518;2024-03-08T12:49:10;28.00;;;25.70;;
10452;SDS011;5274;51.992;8.518;2024-03-08T12:51:37;28.85;;;26.38;;
10452;SDS011;5274;51.992;8.518;2024-03-08T12:54:03;29.83;;;27.37;;
10452;SDS011;5274;51.992;8.518;2024-03-08T12:56:32;29.00;;;26.60;;
10452;SDS011;5274;51.992;8.518;2024-03-08T12:58:59;27.95;;;25.75;;
10452;SDS011;5274;51.992;8.518;2024-03-08T13:01:25;29.13;;;26.73;;
10452;SDS011;5274;51.992;8.518;2024-03-08T13:03:54;29.23;;;26.92;;
10452;SDS011;5274;51.992;8.518;2024-03-08T13:06:20;29.13;;;26.73;;
10452;SDS011;5274;51.992;8.518;2024-03-08T13:08:49;29.25;;;26.85;;
10452;SDS011;5274;51.992;8.518;2024-03-08T13:11:15;28.33;;;25.92;;
10452;SDS011;5274;51.992;8.518;2024-03-08T13:13:41;29.30;;;26.85;;
10452;SDS011;5274;51.992;8.518;2024-03-08T13:16:07;28.45;;;26.15;;
10452;SDS011;5274;51.992;8.518;2024-03-08T13:18:34;28.63;;;26.23;;
10452;SDS011;5274;51.992;8.518;2024-03-08T13:21:00;28.80;;;26.35;;
10452;SDS011;5274;51.992;8.518;2024-03-08T13:23:30;28.17;;;25.50;;
10452;SDS011;5274;51.992;8.518;2024-03-08T13:25:55;28.55;;;26.15;;
10452;SDS011;5274;51.992;8.518;2024-03-08T13:28:22;28.33;;;25.98;;
10452;SDS011;5274;51.992;8.518;2024-03-08T13:30:52;29.50;;;27.10;;
10452;SDS011;5274;51.992;8.518;2024-03-08T13:33:18;28.55;;;26.35;;
10452;SDS011;5274;51.992;8.518;2024-03-08T13:35:45;28.67;;;26.40;;
10452;SDS011;5274;51.992;8.518;2024-03-08T13:38:11;28.17;;;25.98;;
10452;SDS011;5274;51.992;8.518;2024-03-08T13:40:38;28.10;;;25.90;;
10452;SDS011;5274;51.992;8.518;2024-03-08T13:43:05;28.33;;;25.95;;
10452;SDS011;5274;51.992;8.518;2024-03-08T13:45:32;29.45;;;26.95;;
10452;SDS011;5274;51.992;8.518;2024-03-08T13:47:58;29.15;;;26.65;;
10452;SDS011;5274;51.992;8.518;2024-03-08T13:50:24;30.45;;;27.95;;
10452;SDS011;5274;51.992;8.518;2024-03-08T13:52:51;31.40;;;28.77;;
10452;SDS011;5274;51.992;8.518;2024-03-08T13:55:19;31.20;;;28.60;;
10452;SDS011;5274;51.992;8.518;2024-03-08T13:57:44;31.83;;;29.15;;
10452;SDS011;5274;51.992;8.518;2024-03-08T14:00:11;30.77;;;28.17;;
10452;SDS011;5274;51.992;8.518;2024-03-08T14:02:37;32.08;;;28.98;;
10452;SDS011;5274;51.992;8.518;2024-03-08T14:05:05;31.50;;;28.73;;
10452;SDS011;5274;51.992;8.518;2024-03-08T14:07:33;31.88;;;29.08;;
10452;SDS011;5274;51.992;8.518;2024-03-08T14:09:58;31.73;;;29.03;;
10452;SDS011;5274;51.992;8.518;2024-03-08T14:12:24;32.85;;;29.85;;
10452;SDS011;5274;51.992;8.518;2024-03-08T14:14:51;33.03;;;29.93;;
10452;SDS011;5274;51.992;8.518;2024-03-08T14:17:17;32.28;;;29.27;;
10452;SDS011;5274;51.992;8.518;2024-03-08T14:19:43;32.80;;;29.73;;
10452;SDS011;5274;51.992;8.518;2024-03-08T14:22:09;31.77;;;28.93;;
10452;SDS011;5274;51.992;8.518;2024-03-08T14:24:39;31.83;;;28.92;;
10452;SDS011;5274;51.992;8.518;2024-03-08T14:27:05;32.40;;;29.38;;
10452;SDS011;5274;51.992;8.518;2024-03-08T14:29:33;31.70;;;28.83;;
10452;SDS011;5274;51.992;8.518;2024-03-08T14:31:59;31.80;;;28.90;;
10452;SDS011;5274;51.992;8.518;2024-03-08T14:34:25;31.88;;;29.02;;
10452;SDS011;5274;51.992;8.518;2024-03-08T14:36:52;32.60;;;29.70;;
10452;SDS011;5274;51.992;8.518;2024-03-08T14:39:18;30.38;;;27.67;;
10452;SDS011;5274;51.992;8.518;2024-03-08T14:41:51;31.60;;;28.65;;
10452;SDS011;5274;51.992;8.518;2024-03-08T14:44:18;31.95;;;29.00;;